Time;durP1;ratioP1;P1;durP2;ratioP2;P2;SDS_P1;SDS_P2;PMS_P1;PMS_P2;Temp;Humidity;BMP_temperature;BMP_pressure;BME280_temperature;BME280_humidity;BME280_pressure;Samples;Min_cycle;Max_cycle;Signal;HPM_P1;HPM_P2
2023/10/20 00:01:53;;;;;;;;;;;20.00;50.70;;;;;;1511153;78;1113;-59
2023/10/20 00:03:55;;;;;;;;;;;20.00;50.70;;;;;;1518520;77;1652;-59
2023/10/20 00:05:58;;;;;;;;;;;20.00;50.70;;;;;;1514692;76;718;-58
2023/10/20 00:08:00;;;;;;;;;;;20.00;50.70;;;;;;1518259;76;694;-59
2023/10/20 00:10:03;;;;;;;;;;;20.00;50.70;;;;;;1514683;78;695;-57
2023/10/20 00:12:05;;;;;;;;;;;20.00;50.70;;;;;;1507085;77;1151;-58
2023/10/20 00:14:07;;;;;;;;;;;20.00;50.70;;;;;;1518887;76;702;-59
2023/10/20 00:16:09;;;;;;;;;;;20.00;50.70;;;;;;1516693;77;1582;-57
2023/10/20 00:18:11;;;;;;;;;;;20.00;50.70;;;;;;1506863;78;694;-58
2023/10/20 00:20:13;;;;;;;;;;;20.00;50.70;;;;;;1511070;78;1942;-57
2023/10/20 00:22:15;;;;;;;;;;;20.00;50.70;;;;;;1510735;76;1139;-60
2023/10/20 00:24:17;;;;;;;;;;;20.00;50.70;;;;;;1520255;78;722;-59
2023/10/20 00:26:19;;;;;;;;;;;20.00;50.80;;;;;;1514331;78;716;-57
2023/10/20 00:28:21;;;;;;;;;;;20.00;50.80;;;;;;1514286;78;678;-58
2023/10/20 00:30:22;;;;;;;;;;;20.00;50.70;;;;;;1518715;76;1333;-57
2023/10/20 00:32:24;;;;;;;;;;;20.00;50.70;;;;;;1517537;78;1101;-59
2023/10/20 00:34:26;;;;;;;;;;;20.00;50.70;;;;;;1517379;78;711;-58
2023/10/20 00:36:28;;;;;;;;;;;20.00;50.70;;;;;;1507858;78;645;-58
2023/10/20 00:38:31;;;;;;;;;;;20.00;50.70;;;;;;1509190;78;667;-57
2023/10/20 00:40:32;;;;;;;;;;;20.00;50.70;;;;;;1514695;76;1921;-57
2023/10/20 00:42:35;;;;;;;;;;;19.90;50.70;;;;;;1515061;78;803;-59
2023/10/20 00:44:37;;;;;;;;;;;20.00;50.70;;;;;;1513722;76;1478;-59
2023/10/20 00:46:39;;;;;;;;;;;19.90;50.70;;;;;;1512087;78;786;-60
2023/10/20 00:48:41;;;;;;;;;;;20.00;50.70;;;;;;1505056;78;748;-58
2023/10/20 00:50:45;;;;;;;;;;;20.00;50.70;;;;;;1515926;78;1165;-58
2023/10/20 00:52:48;;;;;;;;;;;20.00;50.70;;;;;;1517602;78;1357;-59
2023/10/20 00:54:50;;;;;;;;;;;20.00;50.70;;;;;;1517593;76;687;-59
2023/10/20 00:56:53;;;;;;;;;;;20.00;50.70;;;;;;1511745;78;719;-60
2023/10/20 00:58:55;;;;;;;;;;;20.00;50.70;;;;;;1516171;78;1510;-56
2023/10/20 01:00:57;;;;;;;;;;;20.00;50.70;;;;;;1508374;78;1924;-57
2023/10/20 01:02:58;;;;;;;;;;;20.00;50.70;;;;;;1513527;76;802;-58
2023/10/20 01:05:00;;;;;;;;;;;19.90;50.70;;;;;;1492373;79;702;-58
2023/10/20 01:07:02;;;;;;;;;;;20.00;50.70;;;;;;1520279;76;717;-60
2023/10/20 01:09:04;;;;;;;;;;;20.00;50.70;;;;;;1520875;78;691;-57
2023/10/20 01:11:06;;;;;;;;;;;20.00;50.70;;;;;;1520214;78;1152;-59
2023/10/20 01:13:08;;;;;;;;;;;20.00;50.70;;;;;;1517575;76;1543;-58
2023/10/20 01:15:11;;;;;;;;;;;19.90;50.70;;;;;;1507509;76;653;-58
2023/10/20 01:17:13;;;;;;;;;;;19.90;50.70;;;;;;1520659;78;754;-59
2023/10/20 01:19:15;;;;;;;;;;;19.90;50.70;;;;;;1510184;78;765;-59
2023/10/20 01:21:17;;;;;;;;;;;20.00;50.70;;;;;;1516877;78;1920;-58
2023/10/20 01:23:19;;;;;;;;;;;20.00;50.70;;;;;;1517527;76;689;-57
2023/10/20 01:25:22;;;;;;;;;;;20.00;50.70;;;;;;1506121;78;797;-58
2023/10/20 01:27:24;;;;;;;;;;;19.90;50.70;;;;;;1519379;77;1327;-59
2023/10/20 01:29:26;;;;;;;;;;;20.00;50.70;;;;;;1512491;78;711;-59
2023/10/20 01:31:28;;;;;;;;;;;20.00;50.70;;;;;;1519410;76;1164;-60
2023/10/20 01:33:30;;;;;;;;;;;20.00;50.70;;;;;;1508502;78;669;-60
2023/10/20 01:35:32;;;;;;;;;;;20.00;50.70;;;;;;1517948;78;795;-59
2023/10/20 01:37:33;;;;;;;;;;;20.00;50.70;;;;;;1516204;78;676;-59
2023/10/20 01:39:35;;;;;;;;;;;20.00;50.70;;;;;;1519940;78;713;-59
2023/10/20 01:41:37;;;;;;;;;;;20.00;50.70;;;;;;1514851;76;1943;-57
2023/10/20 01:43:39;;;;;;;;;;;20.00;50.70;;;;;;1515921;76;678;-59
2023/10/20 01:45:41;;;;;;;;;;;20.00;50.70;;;;;;1520859;78;603;-60
2023/10/20 01:47:43;;;;;;;;;;;20.00;50.70;;;;;;1520926;78;666;-59
2023/10/20 01:49:45;;;;;;;;;;;19.90;50.70;;;;;;1514869;78;704;-59
2023/10/20 01:51:47;;;;;;;;;;;19.90;50.70;;;;;;1517214;76;1113;-57
2023/10/20 01:53:49;;;;;;;;;;;20.00;50.70;;;;;;1520599;78;573;-58
2023/10/20 01:55:51;;;;;;;;;;;20.00;50.70;;;;;;1515335;76;1291;-58
2023/10/20 01:57:52;;;;;;;;;;;19.90;50.70;;;;;;1513628;78;732;-59
2023/10/20 01:59:54;;;;;;;;;;;20.00;50.70;;;;;;1520044;78;637;-59
2023/10/20 02:01:56;;;;;;;;;;;19.90;50.70;;;;;;1505830;78;1956;-59
2023/10/20 02:03:58;;;;;;;;;;;20.00;50.70;;;;;;1518327;77;785;-56
2023/10/20 02:06:00;;;;;;;;;;;20.00;50.70;;;;;;1516052;76;751;-58
2023/10/20 02:08:02;;;;;;;;;;;20.00;50.70;;;;;;1516256;76;666;-59
2023/10/20 02:10:06;;;;;;;;;;;20.00;50.70;;;;;;1515267;78;1495;-56
2023/10/20 02:12:10;;;;;;;;;;;20.00;50.70;;;;;;1515114;77;1136;-56
2023/10/20 02:14:12;;;;;;;;;;;20.00;50.70;;;;;;1512791;76;824;-58
2023/10/20 02:16:13;;;;;;;;;;;19.90;50.70;;;;;;1515157;77;706;-59
2023/10/20 02:18:17;;;;;;;;;;;20.00;50.70;;;;;;1514564;77;635;-58
2023/10/20 02:20:22;;;;;;;;;;;20.00;50.70;;;;;;1514943;78;1917;-58
2023/10/20 02:22:22;;;;;;;;;;;20.00;50.70;;;;;;1510608;77;1433;-56
2023/10/20 02:24:24;;;;;;;;;;;19.90;50.70;;;;;;1518601;76;1282;-58
2023/10/20 02:26:26;;;;;;;;;;;19.90;50.70;;;;;;1520505;78;665;-60
2023/10/20 02:28:28;;;;;;;;;;;20.00;50.70;;;;;;1514203;78;761;-58
2023/10/20 02:30:34;;;;;;;;;;;19.90;50.70;;;;;;1518883;78;1129;-59
2023/10/20 02:32:34;;;;;;;;;;;20.00;50.70;;;;;;1516030;76;1832;-58
2023/10/20 02:34:36;;;;;;;;;;;20.00;50.80;;;;;;1508949;77;815;-57
2023/10/20 02:36:37;;;;;;;;;;;20.00;50.80;;;;;;1510034;78;813;-58
2023/10/20 02:38:39;;;;;;;;;;;20.00;50.80;;;;;;1509885;78;1654;-59
2023/10/20 02:40:43;;;;;;;;;;;20.00;50.90;;;;;;1517992;78;1932;-59
2023/10/20 02:42:45;;;;;;;;;;;20.00;50.80;;;;;;1511515;76;1817;-59
2023/10/20 02:44:47;;;;;;;;;;;19.90;50.80;;;;;;1515832;76;709;-59
2023/10/20 02:46:49;;;;;;;;;;;20.00;50.80;;;;;;1511659;78;869;-59
2023/10/20 02:48:50;;;;;;;;;;;20.00;50.80;;;;;;1509013;77;768;-56
2023/10/20 02:50:52;;;;;;;;;;;20.00;50.80;;;;;;1512920;77;1589;-59
2023/10/20 02:52:54;;;;;;;;;;;20.00;50.80;;;;;;1516010;76;680;-58
2023/10/20 02:54:56;;;;;;;;;;;19.90;50.80;;;;;;1504152;78;807;-56
2023/10/20 02:56:58;;;;;;;;;;;19.90;50.90;;;;;;1507902;78;717;-58
2023/10/20 02:59:00;;;;;;;;;;;20.00;50.80;;;;;;1519367;77;725;-56
2023/10/20 03:01:02;;;;;;;;;;;19.90;50.90;;;;;;1515448;76;1939;-58
2023/10/20 03:03:05;;;;;;;;;;;20.00;50.90;;;;;;1513354;78;697;-59
2023/10/20 03:05:07;;;;;;;;;;;20.00;50.80;;;;;;1518494;78;1302;-57
2023/10/20 03:07:09;;;;;;;;;;;20.00;50.90;;;;;;1512251;78;720;-59
2023/10/20 03:09:13;;;;;;;;;;;20.00;50.80;;;;;;1513869;78;745;-58
2023/10/20 03:11:15;;;;;;;;;;;20.00;50.90;;;;;;1511280;78;1144;-58
2023/10/20 03:13:19;;;;;;;;;;;20.00;50.90;;;;;;1510693;76;755;-57
2023/10/20 03:15:20;;;;;;;;;;;20.00;50.80;;;;;;1520867;78;1506;-57
2023/10/20 03:17:22;;;;;;;;;;;20.00;50.80;;;;;;1506708;78;804;-60
2023/10/20 03:19:24;;;;;;;;;;;20.00;50.80;;;;;;1510349;78;1603;-58
2023/10/20 03:21:26;;;;;;;;;;;20.00;50.80;;;;;;1520247;78;1942;-60
2023/10/20 03:23:28;;;;;;;;;;;20.00;50.90;;;;;;1511609;76;671;-59
2023/10/20 03:25:31;;;;;;;;;;;19.90;50.80;;;;;;1515672;78;1092;-58
2023/10/20 03:27:33;;;;;;;;;;;19.90;50.80;;;;;;1520081;78;563;-59
2023/10/20 03:29:36;;;;;;;;;;;20.00;50.80;;;;;;1514758;78;804;-57
2023/10/20 03:31:37;;;;;;;;;;;20.00;50.80;;;;;;1516235;76;1126;-59
2023/10/20 03:33:40;;;;;;;;;;;20.00;50.90;;;;;;1506875;78;1355;-59
2023/10/20 03:35:42;;;;;;;;;;;19.90;50.90;;;;;;1514072;78;665;-60
2023/10/20 03:37:44;;;;;;;;;;;19.90;50.90;;;;;;1508550;78;693;-58
2023/10/20 03:39:46;;;;;;;;;;;19.90;51.00;;;;;;1510356;78;732;-58
2023/10/20 03:41:49;;;;;;;;;;;20.00;50.90;;;;;;1514817;76;1954;-57
2023/10/20 03:43:51;;;;;;;;;;;20.00;50.80;;;;;;1514307;76;695;-59
2023/10/20 03:45:56;;;;;;;;;;;19.90;50.90;;;;;;1514299;78;756;-58
2023/10/20 03:47:58;;;;;;;;;;;19.90;50.90;;;;;;1510894;78;1553;-58
2023/10/20 03:50:00;;;;;;;;;;;20.00;50.90;;;;;;1514632;78;770;-57
2023/10/20 03:52:03;;;;;;;;;;;20.00;50.90;;;;;;1512122;76;1146;-59
2023/10/20 03:54:10;;;;;;;;;;;19.90;50.90;;;;;;1515008;78;716;-59
2023/10/20 03:56:09;;;;;;;;;;;19.90;50.90;;;;;;1509664;77;1625;-57
2023/10/20 03:58:11;;;;;;;;;;;20.00;50.90;;;;;;1507666;78;908;-59
2023/10/20 04:00:22;;;;;;;;;;;20.00;50.90;;;;;;1504281;78;730;-60
2023/10/20 04:02:23;;;;;;;;;;;20.00;50.90;;;;;;1520922;76;1939;-60
2023/10/20 04:04:24;;;;;;;;;;;20.00;50.90;;;;;;1515878;77;710;-60
2023/10/20 04:06:26;;;;;;;;;;;20.00;50.90;;;;;;1517946;78;685;-60
2023/10/20 04:08:28;;;;;;;;;;;20.00;50.90;;;;;;1513878;76;782;-59
2023/10/20 04:10:30;;;;;;;;;;;20.00;50.90;;;;;;1513875;78;1097;-60
2023/10/20 04:12:32;;;;;;;;;;;19.90;50.90;;;;;;1500433;78;774;-60
2023/10/20 04:14:34;;;;;;;;;;;20.00;51.00;;;;;;1515786;76;807;-60
2023/10/20 04:16:42;;;;;;;;;;;19.90;50.90;;;;;;1515855;78;1612;-59
2023/10/20 04:18:44;;;;;;;;;;;19.90;50.90;;;;;;1508390;78;642;-60
2023/10/20 04:20:51;;;;;;;;;;;20.00;50.90;;;;;;1516584;77;1105;-59
2023/10/20 04:22:50;;;;;;;;;;;19.90;50.90;;;;;;1514800;76;1966;-59
2023/10/20 04:24:53;;;;;;;;;;;19.90;50.90;;;;;;1520646;78;734;-60
2023/10/20 04:26:55;;;;;;;;;;;20.00;50.90;;;;;;1516680;78;810;-60
2023/10/20 04:43:03;;;;;;;;;;;19.90;50.90;;;;;;1509125;78;1890;-59
2023/10/20 04:54:19;;;;;;;;;;;20.00;50.90;;;;;;1459741;80;1090;-59
2023/10/20 04:58:40;;;;;;;;;;;19.90;50.90;;;;;;1460787;80;1621;-60
2023/10/20 05:00:41;;;;;;;;;;;20.00;50.90;;;;;;1475408;78;1585;-59
2023/10/20 05:04:55;;;;;;;;;;;20.00;50.90;;;;;;1484125;79;819;-58
2023/10/20 05:07:08;;;;;;;;;;;20.00;50.90;;;;;;1479340;79;802;-59
2023/10/20 05:09:13;;;;;;;;;;;19.90;50.90;;;;;;1487131;79;1732;-61
2023/10/20 05:11:13;;;;;;;;;;;19.90;50.90;;;;;;1466217;79;1167;-60
2023/10/20 05:13:16;;;;;;;;;;;20.00;50.90;;;;;;1460995;81;1294;-61
2023/10/20 05:15:18;;;;;;;;;;;20.00;50.80;;;;;;1484522;78;752;-60
2023/10/20 05:17:20;;;;;;;;;;;19.90;50.90;;;;;;1486254;79;760;-60
2023/10/20 05:19:23;;;;;;;;;;;20.00;50.90;;;;;;1471234;80;753;-60
2023/10/20 05:21:25;;;;;;;;;;;19.90;50.90;;;;;;1524932;76;1944;-61
2023/10/20 05:23:27;;;;;;;;;;;20.00;50.90;;;;;;1527362;77;796;-61
2023/10/20 05:25:29;;;;;;;;;;;19.90;50.80;;;;;;1526295;77;744;-60
2023/10/20 05:27:31;;;;;;;;;;;19.90;50.90;;;;;;1528122;77;1479;-62
2023/10/20 05:29:32;;;;;;;;;;;20.00;50.80;;;;;;1524250;77;675;-61
2023/10/20 05:31:34;;;;;;;;;;;19.90;50.90;;;;;;1525165;76;1216;-60
2023/10/20 05:33:36;;;;;;;;;;;19.90;50.90;;;;;;1526551;77;751;-60
2023/10/20 05:35:39;;;;;;;;;;;19.90;50.90;;;;;;1528248;77;928;-60
2023/10/20 05:37:41;;;;;;;;;;;20.00;50.90;;;;;;1526246;77;690;-60
2023/10/20 05:39:42;;;;;;;;;;;19.90;50.90;;;;;;1524320;76;1517;-61
2023/10/20 05:41:44;;;;;;;;;;;20.00;50.90;;;;;;1517738;77;1955;-61
2023/10/20 05:43:46;;;;;;;;;;;19.90;50.90;;;;;;1527578;76;755;-61
2023/10/20 05:45:48;;;;;;;;;;;20.00;50.90;;;;;;1518580;77;746;-60
2023/10/20 05:47:50;;;;;;;;;;;20.00;50.90;;;;;;1523238;77;756;-60
2023/10/20 05:49:52;;;;;;;;;;;19.90;50.90;;;;;;1521877;77;696;-60
2023/10/20 05:51:54;;;;;;;;;;;19.90;50.90;;;;;;1516368;77;1164;-60
2023/10/20 05:53:56;;;;;;;;;;;19.90;50.90;;;;;;1521092;76;1568;-62
2023/10/20 05:55:58;;;;;;;;;;;19.90;50.90;;;;;;1522062;77;783;-61
2023/10/20 05:58:00;;;;;;;;;;;20.00;50.90;;;;;;1518385;77;745;-61
2023/10/20 06:00:03;;;;;;;;;;;19.90;50.90;;;;;;1521652;77;765;-60
2023/10/20 06:02:05;;;;;;;;;;;20.00;50.90;;;;;;1518969;76;1925;-61
2023/10/20 06:04:08;;;;;;;;;;;20.00;51.00;;;;;;1524012;77;685;-61
2023/10/20 06:06:10;;;;;;;;;;;20.00;51.00;;;;;;1481431;77;743;-60
2023/10/20 06:08:12;;;;;;;;;;;20.00;50.90;;;;;;1529215;76;1536;-60
2023/10/20 06:10:21;;;;;;;;;;;19.90;50.90;;;;;;1515033;77;969;-61
2023/10/20 06:12:18;;;;;;;;;;;20.00;50.90;;;;;;1521759;77;1751;-60
2023/10/20 06:14:23;;;;;;;;;;;20.00;50.90;;;;;;1525606;76;692;-61
2023/10/20 06:16:26;;;;;;;;;;;20.00;50.80;;;;;;1530587;76;1352;-61
2023/10/20 06:18:28;;;;;;;;;;;19.90;50.90;;;;;;1523208;77;672;-60
2023/10/20 06:20:30;;;;;;;;;;;19.90;50.90;;;;;;1530238;76;1147;-60
2023/10/20 06:22:32;;;;;;;;;;;19.90;50.90;;;;;;1522095;77;1896;-60
2023/10/20 06:24:34;;;;;;;;;;;19.90;50.90;;;;;;1527017;76;714;-61
2023/10/20 06:26:36;;;;;;;;;;;20.00;50.90;;;;;;1525280;77;780;-60
2023/10/20 06:28:38;;;;;;;;;;;20.00;50.90;;;;;;1525051;77;794;-62
2023/10/20 06:30:45;;;;;;;;;;;19.90;50.90;;;;;;1517947;77;1166;-60
2023/10/20 06:32:47;;;;;;;;;;;19.90;50.90;;;;;;1523314;77;1630;-61
2023/10/20 06:34:51;;;;;;;;;;;20.00;50.90;;;;;;1527446;76;783;-61
2023/10/20 06:37:08;;;;;;;;;;;19.90;50.90;;;;;;1525901;77;1312;-61
2023/10/20 06:39:05;;;;;;;;;;;20.00;50.90;;;;;;1514840;77;1628;-61
2023/10/20 06:41:07;;;;;;;;;;;20.00;50.90;;;;;;1523856;77;1265;-61
2023/10/20 06:43:09;;;;;;;;;;;19.90;50.90;;;;;;1525876;76;1918;-60
2023/10/20 06:45:11;;;;;;;;;;;20.00;50.90;;;;;;1525469;77;691;-60
2023/10/20 06:47:13;;;;;;;;;;;20.00;50.80;;;;;;1525492;77;719;-61
2023/10/20 06:49:18;;;;;;;;;;;20.00;50.80;;;;;;1528673;77;765;-60
2023/10/20 06:51:18;;;;;;;;;;;20.00;50.80;;;;;;1522103;76;1739;-61
2023/10/20 06:53:20;;;;;;;;;;;20.00;50.90;;;;;;1525264;76;656;-61
2023/10/20 06:55:22;;;;;;;;;;;20.00;50.80;;;;;;1528391;77;859;-60
2023/10/20 06:57:24;;;;;;;;;;;20.00;50.80;;;;;;1528746;77;749;-60
2023/10/20 06:59:26;;;;;;;;;;;19.90;50.90;;;;;;1527365;77;717;-61
2023/10/20 07:01:28;;;;;;;;;;;19.90;50.90;;;;;;1525024;76;1139;-61
2023/10/20 07:03:32;;;;;;;;;;;20.00;50.80;;;;;;1521891;77;1920;-60
2023/10/20 07:05:37;;;;;;;;;;;20.00;50.80;;;;;;1522980;77;1587;-60
2023/10/20 07:07:37;;;;;;;;;;;20.00;50.80;;;;;;1526366;76;1699;-60
2023/10/20 07:09:40;;;;;;;;;;;20.00;50.90;;;;;;1519162;77;763;-60
2023/10/20 07:11:42;;;;;;;;;;;20.00;50.90;;;;;;1521683;77;1167;-59
2023/10/20 07:13:44;;;;;;;;;;;19.90;50.90;;;;;;1523992;76;729;-60
2023/10/20 07:15:46;;;;;;;;;;;20.00;50.90;;;;;;1519349;77;740;-61
2023/10/20 07:17:48;;;;;;;;;;;20.00;50.90;;;;;;1518774;77;765;-61
2023/10/20 07:19:50;;;;;;;;;;;19.90;50.90;;;;;;1524568;77;1572;-60
2023/10/20 07:21:53;;;;;;;;;;;20.00;50.90;;;;;;1529087;76;1952;-60
2023/10/20 07:23:55;;;;;;;;;;;19.90;50.90;;;;;;1522213;77;788;-60
2023/10/20 07:25:57;;;;;;;;;;;19.90;50.90;;;;;;1526910;77;824;-60
2023/10/20 07:27:59;;;;;;;;;;;19.90;50.90;;;;;;1522951;77;774;-61
2023/10/20 07:30:01;;;;;;;;;;;19.90;50.90;;;;;;1528745;76;710;-61
2023/10/20 07:32:03;;;;;;;;;;;19.90;51.00;;;;;;1530653;77;1255;-60
2023/10/20 07:34:09;;;;;;;;;;;20.00;50.90;;;;;;1529601;77;1761;-60
2023/10/20 07:36:09;;;;;;;;;;;19.90;51.00;;;;;;1521435;77;1422;-61
2023/10/20 07:38:12;;;;;;;;;;;19.90;50.90;;;;;;1522591;77;781;-61
2023/10/20 07:40:14;;;;;;;;;;;20.00;50.90;;;;;;1523114;76;719;-60
2023/10/20 07:42:19;;;;;;;;;;;20.00;51.00;;;;;;1530079;77;1926;-60
2023/10/20 07:44:20;;;;;;;;;;;19.90;50.90;;;;;;1527445;76;1672;-61
2023/10/20 07:46:21;;;;;;;;;;;20.00;50.90;;;;;;1527277;77;1233;-60
2023/10/20 07:48:24;;;;;;;;;;;20.00;51.00;;;;;;1526209;77;697;-59
2023/10/20 07:50:26;;;;;;;;;;;20.00;50.90;;;;;;1528370;77;707;-61
2023/10/20 07:52:28;;;;;;;;;;;19.90;50.90;;;;;;1521400;77;1121;-60
2023/10/20 07:54:30;;;;;;;;;;;19.90;50.90;;;;;;1519397;76;776;-61
2023/10/20 07:56:32;;;;;;;;;;;19.90;51.00;;;;;;1522307;77;698;-62
2023/10/20 07:58:34;;;;;;;;;;;19.90;50.90;;;;;;1527758;77;643;-60
2023/10/20 08:00:36;;;;;;;;;;;20.00;51.00;;;;;;1524707;77;1549;-60
2023/10/20 08:02:38;;;;;;;;;;;19.90;50.90;;;;;;1525410;76;1936;-60
2023/10/20 08:04:45;;;;;;;;;;;20.00;50.90;;;;;;1524754;77;628;-60
2023/10/20 08:06:43;;;;;;;;;;;20.00;51.00;;;;;;1520948;76;1579;-60
2023/10/20 08:08:45;;;;;;;;;;;20.00;51.00;;;;;;1522620;77;644;-60
2023/10/20 08:10:47;;;;;;;;;;;20.00;51.00;;;;;;1514460;77;1186;-61
2023/10/20 08:12:49;;;;;;;;;;;19.90;51.00;;;;;;1521889;77;729;-60
2023/10/20 08:14:51;;;;;;;;;;;19.90;51.00;;;;;;1518609;76;1159;-61
2023/10/20 08:16:53;;;;;;;;;;;19.90;50.90;;;;;;1528631;77;661;-61
2023/10/20 08:18:55;;;;;;;;;;;20.30;51.20;;;;;;1516725;77;790;-61
2023/10/20 08:21:04;;;;;;;;;;;19.90;51.00;;;;;;1513014;77;1213;-60
2023/10/20 08:23:06;;;;;;;;;;;19.90;50.90;;;;;;1529410;76;1917;-60
2023/10/20 08:25:08;;;;;;;;;;;20.00;51.00;;;;;;1525647;77;738;-61
2023/10/20 08:27:10;;;;;;;;;;;19.90;51.00;;;;;;1524088;77;752;-61
2023/10/20 08:29:12;;;;;;;;;;;19.90;51.00;;;;;;1482648;79;1105;-60
2023/10/20 08:31:16;;;;;;;;;;;19.90;50.90;;;;;;1473891;78;1170;-60
2023/10/20 08:33:18;;;;;;;;;;;19.90;51.00;;;;;;1487456;78;1703;-60
2023/10/20 08:35:20;;;;;;;;;;;20.00;51.00;;;;;;1451398;80;752;-60
2023/10/20 08:37:21;;;;;;;;;;;20.00;51.00;;;;;;1455549;80;764;-60
2023/10/20 08:39:25;;;;;;;;;;;19.90;51.00;;;;;;1469313;80;733;-61
2023/10/20 08:41:27;;;;;;;;;;;20.00;51.00;;;;;;1472755;79;1647;-60
2023/10/20 08:43:29;;;;;;;;;;;19.90;51.00;;;;;;1475795;79;1939;-61
2023/10/20 08:45:34;;;;;;;;;;;20.00;51.00;;;;;;1467324;80;719;-60
2023/10/20 08:47:35;;;;;;;;;;;20.00;50.90;;;;;;1468751;80;758;-60
2023/10/20 08:49:37;;;;;;;;;;;19.90;50.90;;;;;;1459776;80;731;-61
2023/10/20 08:51:39;;;;;;;;;;;19.90;51.00;;;;;;1466698;80;1171;-60
2023/10/20 08:53:42;;;;;;;;;;;19.90;51.00;;;;;;1449780;80;704;-61
2023/10/20 08:55:43;;;;;;;;;;;20.00;51.00;;;;;;1487402;79;690;-61
2023/10/20 08:57:45;;;;;;;;;;;20.00;51.00;;;;;;1493213;78;1363;-60
2023/10/20 08:59:51;;;;;;;;;;;19.90;51.00;;;;;;1495287;78;785;-61
2023/10/20 09:01:53;;;;;;;;;;;19.90;50.90;;;;;;1460506;80;1161;-61
2023/10/20 09:03:59;;;;;;;;;;;20.00;50.90;;;;;;1457333;81;1942;-60
2023/10/20 09:06:06;;;;;;;;;;;20.00;51.00;;;;;;1455897;81;710;-61
2023/10/20 09:08:08;;;;;;;;;;;19.90;51.00;;;;;;1487293;78;1887;-60
2023/10/20 09:10:10;;;;;;;;;;;19.90;51.00;;;;;;1480423;79;739;-60
2023/10/20 09:12:13;;;;;;;;;;;20.00;51.00;;;;;;1490143;79;1653;-60
2023/10/20 09:14:15;;;;;;;;;;;20.00;51.00;;;;;;1483982;78;742;-60
2023/10/20 09:16:17;;;;;;;;;;;20.00;51.00;;;;;;1489224;79;862;-60
2023/10/20 09:18:19;;;;;;;;;;;20.00;50.90;;;;;;1480337;79;700;-60
2023/10/20 09:20:21;;;;;;;;;;;19.90;50.90;;;;;;1478796;78;723;-60
2023/10/20 09:22:31;;;;;;;;;;;19.90;51.00;;;;;;1479164;78;1098;-62
2023/10/20 09:24:34;;;;;;;;;;;19.90;51.00;;;;;;1484157;79;1908;-60
2023/10/20 09:26:37;;;;;;;;;;;19.90;51.00;;;;;;1485682;79;1473;-60
2023/10/20 09:28:39;;;;;;;;;;;19.90;50.90;;;;;;1486188;79;744;-60
2023/10/20 09:30:41;;;;;;;;;;;19.90;50.90;;;;;;1468153;79;1149;-60
2023/10/20 09:32:43;;;;;;;;;;;19.90;50.90;;;;;;1484100;79;733;-60
2023/10/20 09:34:45;;;;;;;;;;;19.90;51.00;;;;;;1489646;79;765;-60
2023/10/20 09:36:47;;;;;;;;;;;19.90;51.00;;;;;;1488665;79;750;-61
2023/10/20 09:38:50;;;;;;;;;;;19.90;51.00;;;;;;1481219;79;1332;-60
2023/10/20 09:40:54;;;;;;;;;;;19.90;51.00;;;;;;1473683;80;1107;-60
2023/10/20 09:43:13;;;;;;;;;;;19.90;51.00;;;;;;1474161;79;1912;-61
2023/10/20 09:45:16;;;;;;;;;;;20.00;51.00;;;;;;1474870;80;1982;-60
2023/10/20 09:47:19;;;;;;;;;;;20.00;51.00;;;;;;1472352;80;684;-61
2023/10/20 09:49:22;;;;;;;;;;;20.00;51.00;;;;;;1522797;77;832;-60
2023/10/20 09:51:23;;;;;;;;;;;19.90;51.00;;;;;;1525208;77;1147;-60
2023/10/20 09:53:25;;;;;;;;;;;19.90;51.00;;;;;;1522914;76;1571;-60
2023/10/20 09:55:27;;;;;;;;;;;19.90;51.00;;;;;;1519056;77;736;-61
2023/10/20 09:57:29;;;;;;;;;;;20.00;51.00;;;;;;1524113;77;764;-60
2023/10/20 09:59:31;;;;;;;;;;;19.90;51.00;;;;;;1512292;77;747;-60
2023/10/20 10:01:33;;;;;;;;;;;19.90;51.00;;;;;;1518223;76;1130;-61
2023/10/20 10:03:40;;;;;;;;;;;19.90;51.00;;;;;;1529769;77;1936;-61
2023/10/20 10:05:42;;;;;;;;;;;20.00;51.00;;;;;;1518302;77;730;-60
2023/10/20 10:07:44;;;;;;;;;;;19.90;51.00;;;;;;1515279;76;1525;-61
2023/10/20 10:09:53;;;;;;;;;;;20.00;51.00;;;;;;1516390;77;661;-61
2023/10/20 10:11:55;;;;;;;;;;;19.90;51.00;;;;;;1530030;77;1167;-60
2023/10/20 10:13:59;;;;;;;;;;;19.90;51.00;;;;;;1519075;76;743;-61
2023/10/20 10:16:02;;;;;;;;;;;19.90;51.00;;;;;;1525804;77;1776;-60
2023/10/20 10:18:11;;;;;;;;;;;20.00;51.00;;;;;;1527530;77;1931;-60
2023/10/20 10:20:21;;;;;;;;;;;20.00;51.00;;;;;;1532241;77;820;-59
2023/10/20 10:22:23;;;;;;;;;;;19.90;51.00;;;;;;1520268;76;1801;-61
2023/10/20 10:24:25;;;;;;;;;;;19.90;51.00;;;;;;1527239;77;1909;-61
2023/10/20 10:26:27;;;;;;;;;;;19.90;51.00;;;;;;1527292;77;746;-61
2023/10/20 10:28:30;;;;;;;;;;;20.00;51.00;;;;;;1522981;77;686;-60
2023/10/20 10:30:32;;;;;;;;;;;19.90;51.00;;;;;;1523840;76;1141;-60
2023/10/20 10:32:36;;;;;;;;;;;20.60;51.30;;;;;;1523418;77;768;-60
2023/10/20 10:34:42;;;;;;;;;;;20.00;51.00;;;;;;1524909;77;1569;-60
2023/10/20 10:36:47;;;;;;;;;;;19.90;51.00;;;;;;1526257;77;1278;-60
2023/10/20 10:38:49;;;;;;;;;;;19.90;51.00;;;;;;1528874;76;678;-60
2023/10/20 10:40:51;;;;;;;;;;;19.90;51.00;;;;;;1519521;77;1140;-60
2023/10/20 10:42:53;;;;;;;;;;;19.90;51.00;;;;;;1520915;77;661;-59
2023/10/20 10:44:55;;;;;;;;;;;19.90;51.00;;;;;;1528774;76;1992;-59
2023/10/20 10:46:57;;;;;;;;;;;20.00;51.00;;;;;;1529759;77;591;-60
2023/10/20 10:49:07;;;;;;;;;;;19.90;51.00;;;;;;1519017;77;708;-60
2023/10/20 10:51:09;;;;;;;;;;;19.90;51.00;;;;;;1528079;77;1140;-60
2023/10/20 10:53:11;;;;;;;;;;;19.90;51.00;;;;;;1528864;76;630;-59
2023/10/20 10:55:13;;;;;;;;;;;19.90;51.00;;;;;;1527021;77;713;-59
2023/10/20 10:57:16;;;;;;;;;;;20.00;51.10;;;;;;1525969;77;746;-59
2023/10/20 10:59:19;;;;;;;;;;;20.00;51.10;;;;;;1515866;77;747;-59
2023/10/20 11:01:21;;;;;;;;;;;19.90;51.10;;;;;;1522050;77;1137;-59
2023/10/20 11:03:23;;;;;;;;;;;19.90;51.00;;;;;;1529129;76;1956;-59
2023/10/20 11:05:25;;;;;;;;;;;20.00;51.10;;;;;;1522262;77;882;-59
2023/10/20 11:07:27;;;;;;;;;;;20.00;51.10;;;;;;1522034;76;721;-60
2023/10/20 11:09:29;;;;;;;;;;;19.90;51.10;;;;;;1514283;77;747;-60
2023/10/20 11:11:31;;;;;;;;;;;20.00;51.10;;;;;;1500430;79;1534;-58
2023/10/20 11:13:33;;;;;;;;;;;19.90;51.00;;;;;;1484511;78;763;-60
2023/10/20 11:15:35;;;;;;;;;;;19.90;51.10;;;;;;1465599;81;690;-59
2023/10/20 11:17:37;;;;;;;;;;;19.90;51.10;;;;;;1488568;79;1375;-60
2023/10/20 11:19:39;;;;;;;;;;;19.90;51.10;;;;;;1465202;80;678;-59
2023/10/20 11:21:48;;;;;;;;;;;20.00;51.10;;;;;;1448676;80;1124;-59
2023/10/20 11:23:50;;;;;;;;;;;20.00;51.00;;;;;;1527329;76;1936;-59
2023/10/20 11:25:52;;;;;;;;;;;20.00;51.10;;;;;;1528917;77;750;-60
2023/10/20 11:27:54;;;;;;;;;;;20.00;51.10;;;;;;1518146;77;743;-59
2023/10/20 11:29:58;;;;;;;;;;;20.00;51.10;;;;;;1529664;77;731;-59
2023/10/20 11:32:07;;;;;;;;;;;19.90;51.10;;;;;;1530176;76;1599;-60
2023/10/20 11:34:10;;;;;;;;;;;20.00;51.10;;;;;;1524112;77;708;-59
2023/10/20 11:36:12;;;;;;;;;;;20.00;51.10;;;;;;1522148;77;744;-60
2023/10/20 11:38:16;;;;;;;;;;;20.00;51.10;;;;;;1531516;77;704;-60
2023/10/20 11:40:19;;;;;;;;;;;19.90;51.10;;;;;;1520413;77;844;-60
2023/10/20 11:42:21;;;;;;;;;;;20.00;51.10;;;;;;1521180;76;1099;-60
2023/10/20 11:44:24;;;;;;;;;;;19.90;51.10;;;;;;1518442;76;1928;-60
2023/10/20 11:46:26;;;;;;;;;;;20.00;51.10;;;;;;1524965;77;1742;-60
2023/10/20 11:48:28;;;;;;;;;;;20.00;51.10;;;;;;1525877;77;809;-59
2023/10/20 11:50:30;;;;;;;;;;;19.90;51.10;;;;;;1527161;77;857;-60
2023/10/20 11:52:32;;;;;;;;;;;19.90;51.20;;;;;;1525544;77;752;-60
2023/10/20 11:54:33;;;;;;;;;;;20.00;51.10;;;;;;1527097;76;685;-59
2023/10/20 11:56:35;;;;;;;;;;;19.90;51.10;;;;;;1517642;77;769;-59
2023/10/20 11:58:38;;;;;;;;;;;20.00;51.10;;;;;;1522178;77;758;-59
2023/10/20 12:00:44;;;;;;;;;;;19.90;51.20;;;;;;1526796;76;1535;-60
2023/10/20 12:02:43;;;;;;;;;;;20.00;51.20;;;;;;1525958;77;1606;-59
2023/10/20 12:04:45;;;;;;;;;;;19.90;51.20;;;;;;1524242;77;1924;-59
2023/10/20 12:06:48;;;;;;;;;;;19.90;51.20;;;;;;1521347;76;789;-59
2023/10/20 12:08:50;;;;;;;;;;;19.90;51.20;;;;;;1520877;77;764;-59
2023/10/20 12:10:52;;;;;;;;;;;20.00;51.20;;;;;;1521858;77;1116;-58
2023/10/20 12:12:54;;;;;;;;;;;20.00;51.20;;;;;;1523292;77;757;-58
2023/10/20 12:14:56;;;;;;;;;;;20.00;51.20;;;;;;1525398;76;1369;-56
2023/10/20 12:16:58;;;;;;;;;;;20.00;51.20;;;;;;1530165;77;781;-59
2023/10/20 12:19:05;;;;;;;;;;;20.00;51.10;;;;;;1518603;77;702;-60
2023/10/20 12:21:06;;;;;;;;;;;19.90;51.10;;;;;;1520423;76;1751;-59
2023/10/20 12:23:07;;;;;;;;;;;20.00;51.20;;;;;;1530996;77;777;-59
2023/10/20 12:25:09;;;;;;;;;;;20.00;51.20;;;;;;1525009;77;1948;-60
2023/10/20 12:27:11;;;;;;;;;;;20.00;51.20;;;;;;1521415;77;880;-59
2023/10/20 12:29:13;;;;;;;;;;;20.00;51.20;;;;;;1528479;76;1570;-59
2023/10/20 12:31:15;;;;;;;;;;;20.00;51.20;;;;;;1512835;77;1105;-59
2023/10/20 12:33:17;;;;;;;;;;;20.00;51.20;;;;;;1519137;77;734;-59
2023/10/20 12:35:19;;;;;;;;;;;20.00;51.20;;;;;;1528900;76;715;-59
2023/10/20 12:37:21;;;;;;;;;;;19.90;51.20;;;;;;1514215;76;740;-60
2023/10/20 12:39:23;;;;;;;;;;;20.00;51.20;;;;;;1529583;77;697;-60